PWSweather.com
Personal Weather Stations
Station Observations
KCOBLACK1
Chalet Park, Black Hawk, CO 80422

Chalet ParkBlack Hawk, CO 80422

Lat: 39.8294, Lon: -105.48

Elevation: 9370

Station Type: Vantage Pro2

http://www.oscaranddeb.com/weather

High Low Average
Temperature 55.0°F12.8°F 46.3°F7.9°F 51.0°F10.6°F
Dew Point 40.8°F4.9°F 34.6°F1.4°F 39.1°F3.9°F
Winds 19.0 mph WSW30.6 mph WSW Calm Calm 3.4 mph 5.5 mph
Wind Gusts 26.0 mph41.8 mph -- 7.7 mph12.4 mph
Humidity 77% 48% 64%
Pressure 29.70 in1005.80 in 29.64 in1003.70 in -
Precipitation 0.00 in0.00 in - -
Hour Temp Dew Point Humidity Winds Wind Gusts Pressure Precip Precip Rate Daily Precip Total
12:00 AM 52.2°F11.2°C 36.5°F2.5°C 55% 3.0 mph S4.8 kmh S 5.0 mph8.0 kmh 29.66 in1004.4 mb 0.00 in0.0 mm 0.00 in/hr0.0 mm/hr 0.01 in0.3 mm
12:05 AM 52.4°F11.3°C 36.2°F2.3°C 54% Calm Calm 5.0 mph8.0 kmh 29.65 in1004.1 mb 0.00 in0.0 mm 0.00 in/hr0.0 mm/hr 0.00 in0.0 mm
12:10 AM 52.4°F11.3°C 36.7°F2.6°C 55% 1.0 mph S1.6 kmh S 4.0 mph6.4 kmh 29.65 in1004.1 mb 0.00 in0.0 mm 0.00 in/hr0.0 mm/hr 0.00 in0.0 mm
12:15 AM 52.4°F11.3°C 36.7°F2.6°C 55% Calm Calm 3.0 mph4.8 kmh 29.65 in1004.1 mb 0.00 in0.0 mm 0.00 in/hr0.0 mm/hr 0.00 in0.0 mm
12:20 AM 52.3°F11.3°C 36.6°F2.6°C 55% Calm Calm -- 29.65 in1004.1 mb 0.00 in0.0 mm 0.00 in/hr0.0 mm/hr 0.00 in0.0 mm
12:25 AM 52.2°F11.2°C 36.5°F2.5°C 55% Calm Calm -- 29.65 in1004.1 mb 0.00 in0.0 mm 0.00 in/hr0.0 mm/hr 0.00 in0.0 mm
12:30 AM 52.1°F11.2°C 36.4°F2.4°C 55% Calm Calm -- 29.65 in1004.1 mb 0.00 in0.0 mm 0.00 in/hr0.0 mm/hr 0.00 in0.0 mm
12:35 AM 51.9°F11.1°C 36.7°F2.6°C 56% Calm Calm -- 29.65 in1004.1 mb 0.00 in0.0 mm 0.00 in/hr0.0 mm/hr 0.00 in0.0 mm
12:40 AM 51.7°F10.9°C 36.5°F2.5°C 56% Calm Calm -- 29.64 in1003.7 mb 0.00 in0.0 mm 0.00 in/hr0.0 mm/hr 0.00 in0.0 mm
12:45 AM 51.6°F10.9°C 35.9°F2.2°C 55% 2.0 mph S3.2 kmh S 2.0 mph3.2 kmh 29.64 in1003.7 mb 0.00 in0.0 mm 0.00 in/hr0.0 mm/hr 0.00 in0.0 mm
12:50 AM 51.8°F11.0°C 36.1°F2.3°C 55% 1.0 mph S1.6 kmh S 2.0 mph3.2 kmh 29.64 in1003.7 mb 0.00 in0.0 mm 0.00 in/hr0.0 mm/hr 0.00 in0.0 mm
12:55 AM 51.9°F11.1°C 36.2°F2.3°C 55% 1.0 mph S1.6 kmh S 2.0 mph3.2 kmh 29.64 in1003.7 mb 0.00 in0.0 mm 0.00 in/hr0.0 mm/hr 0.00 in0.0 mm
01:00 AM 51.9°F11.1°C 36.2°F2.3°C 55% 2.0 mph S3.2 kmh S 2.0 mph3.2 kmh 29.64 in1003.7 mb 0.00 in0.0 mm 0.00 in/hr0.0 mm/hr 0.00 in0.0 mm
01:05 AM 52.1°F11.2°C 35.9°F2.2°C 54% 2.0 mph S3.2 kmh S 2.0 mph3.2 kmh 29.64 in1003.7 mb 0.00 in0.0 mm 0.00 in/hr0.0 mm/hr 0.00 in0.0 mm
01:10 AM 52.2°F11.2°C 36.0°F2.2°C 54% Calm Calm 2.0 mph3.2 kmh 29.64 in1003.7 mb 0.00 in0.0 mm 0.00 in/hr0.0 mm/hr 0.00 in0.0 mm
01:15 AM 52.3°F11.3°C 35.6°F2.0°C 53% Calm Calm 1.0 mph1.6 kmh 29.64 in1003.7 mb 0.00 in0.0 mm 0.00 in/hr0.0 mm/hr 0.00 in0.0 mm
01:20 AM 52.4°F11.3°C 35.7°F2.1°C 53% Calm Calm -- 29.63 in1003.4 mb 0.00 in0.0 mm 0.00 in/hr0.0 mm/hr 0.00 in0.0 mm
01:25 AM 52.6°F11.4°C 35.9°F2.2°C 53% Calm Calm -- 29.63 in1003.4 mb 0.00 in0.0 mm 0.00 in/hr0.0 mm/hr 0.00 in0.0 mm
01:30 AM 52.6°F11.4°C 35.9°F2.2°C 53% Calm Calm -- 29.63 in1003.4 mb 0.00 in0.0 mm 0.00 in/hr0.0 mm/hr 0.00 in0.0 mm
01:35 AM 52.4°F11.3°C 35.7°F2.1°C 53% Calm Calm -- 29.63 in1003.4 mb 0.00 in0.0 mm 0.00 in/hr0.0 mm/hr 0.00 in0.0 mm
01:40 AM 52.3°F11.3°C 35.2°F1.8°C 52% Calm Calm -- 29.62 in1003.0 mb 0.00 in0.0 mm 0.00 in/hr0.0 mm/hr 0.00 in0.0 mm
01:45 AM 52.4°F11.3°C 35.2°F1.8°C 52% Calm Calm -- 29.62 in1003.0 mb 0.00 in0.0 mm 0.00 in/hr0.0 mm/hr 0.00 in0.0 mm
01:50 AM 52.7°F11.5°C 35.0°F1.7°C 51% Calm Calm -- 29.62 in1003.0 mb 0.00 in0.0 mm 0.00 in/hr0.0 mm/hr 0.00 in0.0 mm
01:55 AM 52.8°F11.6°C 35.1°F1.7°C 51% Calm Calm -- 29.62 in1003.0 mb 0.00 in0.0 mm 0.00 in/hr0.0 mm/hr 0.00 in0.0 mm
02:00 AM 52.8°F11.6°C 35.1°F1.7°C 51% Calm Calm -- 29.62 in1003.0 mb 0.00 in0.0 mm 0.00 in/hr0.0 mm/hr 0.00 in0.0 mm
02:05 AM 52.7°F11.5°C 35.5°F1.9°C 52% Calm Calm -- 29.63 in1003.4 mb 0.00 in0.0 mm 0.00 in/hr0.0 mm/hr 0.00 in0.0 mm
02:10 AM 52.9°F11.6°C 35.2°F1.8°C 51% Calm Calm -- 29.63 in1003.4 mb 0.00 in0.0 mm 0.00 in/hr0.0 mm/hr 0.00 in0.0 mm
02:15 AM 53.0°F11.7°C 35.3°F1.8°C 51% 1.0 mph S1.6 kmh S 1.0 mph1.6 kmh 29.63 in1003.4 mb 0.00 in0.0 mm 0.00 in/hr0.0 mm/hr 0.00 in0.0 mm
02:20 AM 52.8°F11.6°C 35.1°F1.7°C 51% 2.0 mph SSW3.2 kmh SSW 3.0 mph4.8 kmh 29.64 in1003.7 mb 0.00 in0.0 mm 0.00 in/hr0.0 mm/hr 0.00 in0.0 mm
02:25 AM 52.7°F11.5°C 34.5°F1.4°C 50% 2.0 mph NW3.2 kmh NW 3.0 mph4.8 kmh 29.63 in1003.4 mb 0.00 in0.0 mm 0.00 in/hr0.0 mm/hr 0.00 in0.0 mm
02:30 AM 52.9°F11.6°C 35.2°F1.8°C 51% 4.0 mph NW6.4 kmh NW 4.0 mph6.4 kmh 29.63 in1003.4 mb 0.00 in0.0 mm 0.00 in/hr0.0 mm/hr 0.00 in0.0 mm
02:35 AM 53.0°F11.7°C 35.3°F1.8°C 51% Calm Calm 3.0 mph4.8 kmh 29.63 in1003.4 mb 0.00 in0.0 mm 0.00 in/hr0.0 mm/hr 0.00 in0.0 mm
02:40 AM 52.8°F11.6°C 35.6°F2.0°C 52% 1.0 mph WSW1.6 kmh WSW 3.0 mph4.8 kmh 29.63 in1003.4 mb 0.00 in0.0 mm 0.00 in/hr0.0 mm/hr 0.00 in0.0 mm
02:45 AM 52.5°F11.4°C 35.8°F2.1°C 53% Calm Calm 1.0 mph1.6 kmh 29.63 in1003.4 mb 0.00 in0.0 mm 0.00 in/hr0.0 mm/hr 0.00 in0.0 mm
02:50 AM 52.2°F11.2°C 35.5°F1.9°C 53% Calm Calm -- 29.63 in1003.4 mb 0.00 in0.0 mm 0.00 in/hr0.0 mm/hr 0.00 in0.0 mm
02:55 AM 52.0°F11.1°C 35.8°F2.1°C 54% Calm Calm -- 29.62 in1003.0 mb 0.00 in0.0 mm 0.00 in/hr0.0 mm/hr 0.00 in0.0 mm
03:00 AM 51.7°F10.9°C 35.1°F1.7°C 53% Calm Calm -- 29.62 in1003.0 mb 0.00 in0.0 mm 0.00 in/hr0.0 mm/hr 0.00 in0.0 mm
03:05 AM 51.7°F10.9°C 35.5°F1.9°C 54% Calm Calm -- 29.62 in1003.0 mb 0.00 in0.0 mm 0.00 in/hr0.0 mm/hr 0.00 in0.0 mm
03:10 AM 51.7°F10.9°C 35.5°F1.9°C 54% Calm Calm -- 29.62 in1003.0 mb 0.00 in0.0 mm 0.00 in/hr0.0 mm/hr 0.00 in0.0 mm
03:15 AM 51.5°F10.8°C 36.3°F2.4°C 56% Calm Calm -- 29.62 in1003.0 mb 0.00 in0.0 mm 0.00 in/hr0.0 mm/hr 0.00 in0.0 mm
03:20 AM 51.1°F10.6°C 36.4°F2.4°C 57% Calm Calm -- 29.61 in1002.7 mb 0.00 in0.0 mm 0.00 in/hr0.0 mm/hr 0.00 in0.0 mm
03:25 AM 51.0°F10.6°C 35.8°F2.1°C 56% Calm Calm -- 29.61 in1002.7 mb 0.00 in0.0 mm 0.00 in/hr0.0 mm/hr 0.00 in0.0 mm
03:30 AM 51.3°F10.7°C 35.6°F2.0°C 55% Calm Calm -- 29.61 in1002.7 mb 0.00 in0.0 mm 0.00 in/hr0.0 mm/hr 0.00 in0.0 mm
03:35 AM 51.7°F10.9°C 36.0°F2.2°C 55% Calm Calm -- 29.60 in1002.4 mb 0.00 in0.0 mm 0.00 in/hr0.0 mm/hr 0.00 in0.0 mm
03:40 AM 51.8°F11.0°C 36.1°F2.3°C 55% Calm Calm -- 29.60 in1002.4 mb 0.00 in0.0 mm 0.00 in/hr0.0 mm/hr 0.00 in0.0 mm
03:45 AM 51.7°F10.9°C 36.5°F2.5°C 56% Calm Calm -- 29.60 in1002.4 mb 0.00 in0.0 mm 0.00 in/hr0.0 mm/hr 0.00 in0.0 mm
03:50 AM 51.6°F10.9°C 36.4°F2.4°C 56% Calm Calm -- 29.60 in1002.4 mb 0.00 in0.0 mm 0.00 in/hr0.0 mm/hr 0.00 in0.0 mm
03:55 AM 51.5°F10.8°C 36.3°F2.4°C 56% Calm Calm -- 29.59 in1002.0 mb 0.00 in0.0 mm 0.00 in/hr0.0 mm/hr 0.00 in0.0 mm
04:00 AM 51.5°F10.8°C 36.3°F2.4°C 56% Calm Calm -- 29.59 in1002.0 mb 0.00 in0.0 mm 0.00 in/hr0.0 mm/hr 0.00 in0.0 mm
04:05 AM 51.3°F10.7°C 36.1°F2.3°C 56% Calm Calm -- 29.58 in1001.7 mb 0.00 in0.0 mm 0.00 in/hr0.0 mm/hr 0.00 in0.0 mm
04:10 AM 51.2°F10.7°C 36.4°F2.4°C 57% Calm Calm -- 29.58 in1001.7 mb 0.00 in0.0 mm 0.00 in/hr0.0 mm/hr 0.00 in0.0 mm
04:15 AM 51.1°F10.6°C 36.4°F2.4°C 57% Calm Calm -- 29.58 in1001.7 mb 0.00 in0.0 mm 0.00 in/hr0.0 mm/hr 0.00 in0.0 mm
04:20 AM 50.7°F10.4°C 36.0°F2.2°C 57% Calm Calm -- 29.58 in1001.7 mb 0.00 in0.0 mm 0.00 in/hr0.0 mm/hr 0.00 in0.0 mm
04:25 AM 50.5°F10.3°C 35.8°F2.1°C 57% Calm Calm -- 29.57 in1001.4 mb 0.00 in0.0 mm 0.00 in/hr0.0 mm/hr 0.00 in0.0 mm
04:30 AM 50.4°F10.2°C 36.1°F2.3°C 58% Calm Calm -- 29.57 in1001.4 mb 0.00 in0.0 mm 0.00 in/hr0.0 mm/hr 0.00 in0.0 mm
04:35 AM 50.3°F10.2°C 35.6°F2.0°C 57% Calm Calm -- 29.57 in1001.4 mb 0.00 in0.0 mm 0.00 in/hr0.0 mm/hr 0.00 in0.0 mm
04:40 AM 50.2°F10.1°C 35.9°F2.2°C 58% Calm Calm -- 29.56 in1001.0 mb 0.00 in0.0 mm 0.00 in/hr0.0 mm/hr 0.00 in0.0 mm
04:45 AM 50.1°F10.1°C 35.4°F1.9°C 57% 3.0 mph ESE4.8 kmh ESE 6.0 mph9.7 kmh 29.56 in1001.0 mb 0.00 in0.0 mm 0.00 in/hr0.0 mm/hr 0.00 in0.0 mm
04:50 AM 50.3°F10.2°C 35.2°F1.8°C 56% Calm Calm 7.0 mph11.3 kmh 29.56 in1001.0 mb 0.00 in0.0 mm 0.00 in/hr0.0 mm/hr 0.00 in0.0 mm
04:55 AM 50.6°F10.3°C 35.4°F1.9°C 56% 3.0 mph SSE4.8 kmh SSE 5.0 mph8.0 kmh 29.56 in1001.0 mb 0.00 in0.0 mm 0.00 in/hr0.0 mm/hr 0.00 in0.0 mm
05:00 AM 51.2°F10.7°C 36.0°F2.2°C 56% 3.0 mph SE4.8 kmh SE 6.0 mph9.7 kmh 29.56 in1001.0 mb 0.00 in0.0 mm 0.00 in/hr0.0 mm/hr 0.00 in0.0 mm
05:05 AM 51.1°F10.6°C 35.0°F1.7°C 54% 2.0 mph SE3.2 kmh SE 8.0 mph12.9 kmh 29.56 in1001.0 mb 0.00 in0.0 mm 0.00 in/hr0.0 mm/hr 0.00 in0.0 mm
05:10 AM 51.3°F10.7°C 35.2°F1.8°C 54% 3.0 mph SE4.8 kmh SE 8.0 mph12.9 kmh 29.56 in1001.0 mb 0.00 in0.0 mm 0.00 in/hr0.0 mm/hr 0.00 in0.0 mm
05:15 AM 51.4°F10.8°C 35.7°F2.1°C 55% 1.0 mph E1.6 kmh E 7.0 mph11.3 kmh 29.57 in1001.4 mb 0.00 in0.0 mm 0.00 in/hr0.0 mm/hr 0.00 in0.0 mm
05:20 AM 51.0°F10.6°C 35.4°F1.9°C 55% 3.0 mph E4.8 kmh E 7.0 mph11.3 kmh 29.56 in1001.0 mb 0.00 in0.0 mm 0.00 in/hr0.0 mm/hr 0.00 in0.0 mm
05:25 AM 50.7°F10.4°C 35.5°F1.9°C 56% 3.0 mph E4.8 kmh E 7.0 mph11.3 kmh 29.56 in1001.0 mb 0.00 in0.0 mm 0.00 in/hr0.0 mm/hr 0.00 in0.0 mm
05:30 AM 50.6°F10.3°C 35.0°F1.7°C 55% 3.0 mph ESE4.8 kmh ESE 6.0 mph9.7 kmh 29.57 in1001.4 mb 0.00 in0.0 mm 0.00 in/hr0.0 mm/hr 0.00 in0.0 mm
05:35 AM 50.6°F10.3°C 35.0°F1.7°C 55% 6.0 mph E9.7 kmh E 7.0 mph11.3 kmh 29.57 in1001.4 mb 0.00 in0.0 mm 0.00 in/hr0.0 mm/hr 0.00 in0.0 mm
05:40 AM 50.9°F10.5°C 35.3°F1.8°C 55% 3.0 mph E4.8 kmh E 6.0 mph9.7 kmh 29.57 in1001.4 mb 0.00 in0.0 mm 0.00 in/hr0.0 mm/hr 0.00 in0.0 mm
05:45 AM 51.3°F10.7°C 34.2°F1.2°C 52% 1.0 mph E1.6 kmh E 6.0 mph9.7 kmh 29.57 in1001.4 mb 0.00 in0.0 mm 0.00 in/hr0.0 mm/hr 0.00 in0.0 mm
05:50 AM 51.8°F11.0°C 34.2°F1.2°C 51% 1.0 mph ESE1.6 kmh ESE 6.0 mph9.7 kmh 29.57 in1001.4 mb 0.00 in0.0 mm 0.00 in/hr0.0 mm/hr 0.00 in0.0 mm
05:55 AM 52.1°F11.2°C 33.5°F0.8°C 49% 1.0 mph ESE1.6 kmh ESE 3.0 mph4.8 kmh 29.57 in1001.4 mb 0.00 in0.0 mm 0.00 in/hr0.0 mm/hr 0.00 in0.0 mm
06:00 AM 52.4°F11.3°C 33.8°F1.0°C 49% 2.0 mph ESE3.2 kmh ESE 3.0 mph4.8 kmh 29.57 in1001.4 mb 0.00 in0.0 mm 0.00 in/hr0.0 mm/hr 0.00 in0.0 mm
06:05 AM 52.5°F11.4°C 33.3°F0.7°C 48% Calm Calm 6.0 mph9.7 kmh 29.57 in1001.4 mb 0.00 in0.0 mm 0.00 in/hr0.0 mm/hr 0.00 in0.0 mm
06:10 AM 52.6°F11.4°C 33.4°F0.8°C 48% 2.0 mph SW3.2 kmh SW 9.0 mph14.5 kmh 29.56 in1001.0 mb 0.00 in0.0 mm 0.00 in/hr0.0 mm/hr 0.00 in0.0 mm
06:15 AM 52.5°F11.4°C 33.3°F0.7°C 48% 3.0 mph NNW4.8 kmh NNW 9.0 mph14.5 kmh 29.57 in1001.4 mb 0.00 in0.0 mm 0.00 in/hr0.0 mm/hr 0.00 in0.0 mm
06:20 AM 52.8°F11.6°C 33.6°F0.9°C 48% 13.0 mph NE20.9 kmh NE 13.0 mph20.9 kmh 29.57 in1001.4 mb 0.00 in0.0 mm 0.00 in/hr0.0 mm/hr 0.00 in0.0 mm
06:25 AM 53.4°F11.9°C 33.6°F0.9°C 47% 5.0 mph NW8.0 kmh NW 13.0 mph20.9 kmh 29.58 in1001.7 mb 0.00 in0.0 mm 0.00 in/hr0.0 mm/hr 0.00 in0.0 mm
06:30 AM 53.3°F11.8°C 34.6°F1.4°C 49% 7.0 mph NW11.3 kmh NW 18.0 mph29.0 kmh 29.59 in1002.0 mb 0.00 in0.0 mm 0.00 in/hr0.0 mm/hr 0.00 in0.0 mm
06:35 AM 52.9°F11.6°C 35.2°F1.8°C 51% 13.0 mph NW20.9 kmh NW 17.0 mph27.4 kmh 29.60 in1002.4 mb 0.00 in0.0 mm 0.00 in/hr0.0 mm/hr 0.00 in0.0 mm
06:40 AM 52.3°F11.3°C 36.1°F2.3°C 54% 5.0 mph 8.0 kmh 16.0 mph25.7 kmh 29.60 in1002.4 mb 0.00 in0.0 mm 0.00 in/hr0.0 mm/hr 0.00 in0.0 mm
06:45 AM 51.7°F10.9°C 36.5°F2.5°C 56% 3.0 mph WNW4.8 kmh WNW 18.0 mph29.0 kmh 29.60 in1002.4 mb 0.00 in0.0 mm 0.00 in/hr0.0 mm/hr 0.00 in0.0 mm
06:50 AM 51.5°F10.8°C 36.7°F2.6°C 57% 10.0 mph NE16.1 kmh NE 21.0 mph33.8 kmh 29.60 in1002.4 mb 0.00 in0.0 mm 0.00 in/hr0.0 mm/hr 0.00 in0.0 mm
06:55 AM 51.3°F10.7°C 36.5°F2.5°C 57% 3.0 mph NW4.8 kmh NW 16.0 mph25.7 kmh 29.60 in1002.4 mb 0.00 in0.0 mm 0.00 in/hr0.0 mm/hr 0.00 in0.0 mm
07:00 AM 51.3°F10.7°C 36.1°F2.3°C 56% 10.0 mph NW16.1 kmh NW 18.0 mph29.0 kmh 29.60 in1002.4 mb 0.00 in0.0 mm 0.00 in/hr0.0 mm/hr 0.00 in0.0 mm
07:05 AM 51.5°F10.8°C 36.7°F2.6°C 57% 10.0 mph NW16.1 kmh NW 13.0 mph20.9 kmh 29.59 in1002.0 mb 0.00 in0.0 mm 0.00 in/hr0.0 mm/hr 0.00 in0.0 mm
07:10 AM 51.5°F10.8°C 36.7°F2.6°C 57% 2.0 mph NW3.2 kmh NW 20.0 mph32.2 kmh 29.60 in1002.4 mb 0.00 in0.0 mm 0.00 in/hr0.0 mm/hr 0.00 in0.0 mm
07:15 AM 51.3°F10.7°C 36.5°F2.5°C 57% 1.0 mph WNW1.6 kmh WNW 9.0 mph14.5 kmh 29.59 in1002.0 mb 0.00 in0.0 mm 0.00 in/hr0.0 mm/hr 0.00 in0.0 mm
07:20 AM 51.3°F10.7°C 36.1°F2.3°C 56% 2.0 mph WNW3.2 kmh WNW 7.0 mph11.3 kmh 29.59 in1002.0 mb 0.00 in0.0 mm 0.00 in/hr0.0 mm/hr 0.00 in0.0 mm
07:25 AM 51.4°F10.8°C 36.2°F2.3°C 56% 1.0 mph NW1.6 kmh NW 9.0 mph14.5 kmh 29.59 in1002.0 mb 0.00 in0.0 mm 0.00 in/hr0.0 mm/hr 0.00 in0.0 mm
07:30 AM 51.5°F10.8°C 36.7°F2.6°C 57% Calm Calm 3.0 mph4.8 kmh 29.59 in1002.0 mb 0.00 in0.0 mm 0.00 in/hr0.0 mm/hr 0.00 in0.0 mm
07:35 AM 51.6°F10.9°C 35.9°F2.2°C 55% Calm Calm 4.0 mph6.4 kmh 29.59 in1002.0 mb 0.00 in0.0 mm 0.00 in/hr0.0 mm/hr 0.00 in0.0 mm
07:40 AM 51.9°F11.1°C 35.3°F1.8°C 53% 2.0 mph WNW3.2 kmh WNW 5.0 mph8.0 kmh 29.59 in1002.0 mb 0.00 in0.0 mm 0.00 in/hr0.0 mm/hr 0.00 in0.0 mm
07:45 AM 52.4°F11.3°C 36.2°F2.3°C 54% Calm Calm 3.0 mph4.8 kmh 29.59 in1002.0 mb 0.00 in0.0 mm 0.00 in/hr0.0 mm/hr 0.00 in0.0 mm
07:50 AM 52.7°F11.5°C 35.5°F1.9°C 52% 3.0 mph S4.8 kmh S 7.0 mph11.3 kmh 29.59 in1002.0 mb 0.00 in0.0 mm 0.00 in/hr0.0 mm/hr 0.00 in0.0 mm
07:55 AM 53.1°F11.7°C 35.9°F2.2°C 52% 12.0 mph WSW19.3 kmh WSW 13.0 mph20.9 kmh 29.60 in1002.4 mb 0.00 in0.0 mm 0.00 in/hr0.0 mm/hr 0.00 in0.0 mm
08:00 AM 53.7°F12.1°C 35.5°F1.9°C 50% 15.0 mph WSW24.1 kmh WSW 18.0 mph29.0 kmh 29.61 in1002.7 mb 0.00 in0.0 mm 0.00 in/hr0.0 mm/hr 0.00 in0.0 mm
08:05 AM 53.9°F12.2°C 35.1°F1.7°C 49% 13.0 mph W20.9 kmh W 23.0 mph37.0 kmh 29.60 in1002.4 mb 0.00 in0.0 mm 0.00 in/hr0.0 mm/hr 0.00 in0.0 mm
08:10 AM 53.9°F12.2°C 35.1°F1.7°C 49% 10.0 mph W16.1 kmh W 23.0 mph37.0 kmh 29.61 in1002.7 mb 0.00 in0.0 mm 0.00 in/hr0.0 mm/hr 0.00 in0.0 mm
08:15 AM 53.7°F12.1°C 36.0°F2.2°C 51% 8.0 mph SW12.9 kmh SW 19.0 mph30.6 kmh 29.61 in1002.7 mb 0.00 in0.0 mm 0.00 in/hr0.0 mm/hr 0.00 in0.0 mm
08:20 AM 53.5°F11.9°C 35.8°F2.1°C 51% 11.0 mph SW17.7 kmh SW 18.0 mph29.0 kmh 29.61 in1002.7 mb 0.00 in0.0 mm 0.00 in/hr0.0 mm/hr 0.00 in0.0 mm
08:25 AM 53.7°F12.1°C 36.0°F2.2°C 51% 16.0 mph WSW25.7 kmh WSW 27.0 mph43.5 kmh 29.60 in1002.4 mb 0.00 in0.0 mm 0.00 in/hr0.0 mm/hr 0.00 in0.0 mm
08:30 AM 53.9°F12.2°C 36.1°F2.3°C 51% 8.0 mph SW12.9 kmh SW 29.0 mph46.7 kmh 29.60 in1002.4 mb 0.00 in0.0 mm 0.00 in/hr0.0 mm/hr 0.00 in0.0 mm
08:35 AM 53.9°F12.2°C 36.1°F2.3°C 51% 12.0 mph S19.3 kmh S 24.0 mph38.6 kmh 29.60 in1002.4 mb 0.00 in0.0 mm 0.00 in/hr0.0 mm/hr 0.00 in0.0 mm
08:40 AM 54.0°F12.2°C 36.2°F2.3°C 51% 13.0 mph SSW20.9 kmh SSW 22.0 mph35.4 kmh 29.60 in1002.4 mb 0.00 in0.0 mm 0.00 in/hr0.0 mm/hr 0.00 in0.0 mm
08:45 AM 54.3°F12.4°C 36.5°F2.5°C 51% 8.0 mph W12.9 kmh W 16.0 mph25.7 kmh 29.60 in1002.4 mb 0.00 in0.0 mm 0.00 in/hr0.0 mm/hr 0.00 in0.0 mm
08:50 AM 54.6°F12.6°C 37.3°F2.9°C 52% 6.0 mph SW9.7 kmh SW 12.0 mph19.3 kmh 29.60 in1002.4 mb 0.00 in0.0 mm 0.00 in/hr0.0 mm/hr 0.00 in0.0 mm
08:55 AM 54.8°F12.7°C 37.0°F2.8°C 51% 6.0 mph SW9.7 kmh SW 12.0 mph19.3 kmh 29.60 in1002.4 mb 0.00 in0.0 mm 0.00 in/hr0.0 mm/hr 0.00 in0.0 mm
09:00 AM 54.9°F12.7°C 37.1°F2.8°C 51% 14.0 mph SW22.5 kmh SW 17.0 mph27.4 kmh 29.59 in1002.0 mb 0.00 in0.0 mm 0.00 in/hr0.0 mm/hr 0.00 in0.0 mm
09:05 AM 55.0°F12.8°C 36.7°F2.6°C 50% 10.0 mph S16.1 kmh S 18.0 mph29.0 kmh 29.59 in1002.0 mb 0.00 in0.0 mm 0.00 in/hr0.0 mm/hr 0.00 in0.0 mm
09:10 AM 55.2°F12.9°C 36.8°F2.7°C 50% 16.0 mph SSW25.7 kmh SSW 17.0 mph27.4 kmh 29.60 in1002.4 mb 0.00 in0.0 mm 0.00 in/hr0.0 mm/hr 0.00 in0.0 mm
09:15 AM 55.5°F13.1°C 36.1°F2.3°C 48% 6.0 mph SW9.7 kmh SW 28.0 mph45.1 kmh 29.60 in1002.4 mb 0.00 in0.0 mm 0.00 in/hr0.0 mm/hr 0.00 in0.0 mm
09:20 AM 55.9°F13.3°C 36.4°F2.4°C 48% 11.0 mph SW17.7 kmh SW 26.0 mph41.8 kmh 29.60 in1002.4 mb 0.00 in0.0 mm 0.00 in/hr0.0 mm/hr 0.00 in0.0 mm
09:25 AM 56.3°F13.5°C 36.8°F2.7°C 48% 12.0 mph W19.3 kmh W 26.0 mph41.8 kmh 29.62 in1003.0 mb 0.00 in0.0 mm 0.00 in/hr0.0 mm/hr 0.00 in0.0 mm
09:30 AM 56.4°F13.6°C 36.4°F2.4°C 47% 16.0 mph WNW25.7 kmh WNW 37.0 mph59.5 kmh 29.62 in1003.0 mb 0.00 in0.0 mm 0.00 in/hr0.0 mm/hr 0.00 in0.0 mm
09:35 AM 55.1°F12.8°C 36.7°F2.6°C 50% 9.0 mph WNW14.5 kmh WNW 26.0 mph41.8 kmh 29.62 in1003.0 mb 0.00 in0.0 mm 0.00 in/hr0.0 mm/hr 0.00 in0.0 mm
09:40 AM 53.5°F11.9°C 38.1°F3.4°C 56% 4.0 mph W6.4 kmh W 20.0 mph32.2 kmh 29.63 in1003.4 mb 0.00 in0.0 mm 0.00 in/hr0.0 mm/hr 0.00 in0.0 mm
09:45 AM 52.5°F11.4°C 39.4°F4.1°C 61% 15.0 mph SSE24.1 kmh SSE 16.0 mph25.7 kmh 29.63 in1003.4 mb 0.00 in0.0 mm 0.00 in/hr0.0 mm/hr 0.00 in0.0 mm
09:50 AM 51.9°F11.1°C 38.8°F3.8°C 61% 7.0 mph SW11.3 kmh SW 18.0 mph29.0 kmh 29.63 in1003.4 mb 0.00 in0.0 mm 0.00 in/hr0.0 mm/hr 0.00 in0.0 mm
09:55 AM 51.7°F10.9°C 38.6°F3.7°C 61% 5.0 mph WSW8.0 kmh WSW 16.0 mph25.7 kmh 29.63 in1003.4 mb 0.00 in0.0 mm 0.00 in/hr0.0 mm/hr 0.00 in0.0 mm
10:00 AM 51.4°F10.8°C 38.4°F3.6°C 61% 9.0 mph W14.5 kmh W 16.0 mph25.7 kmh 29.63 in1003.4 mb 0.00 in0.0 mm 0.00 in/hr0.0 mm/hr 0.00 in0.0 mm
10:05 AM 51.6°F10.9°C 39.0°F3.9°C 62% 4.0 mph S6.4 kmh S 12.0 mph19.3 kmh 29.64 in1003.7 mb 0.00 in0.0 mm 0.00 in/hr0.0 mm/hr 0.00 in0.0 mm
10:10 AM 52.4°F11.3°C 38.9°F3.8°C 60% 4.0 mph WSW6.4 kmh WSW 14.0 mph22.5 kmh 29.63 in1003.4 mb 0.00 in0.0 mm 0.00 in/hr0.0 mm/hr 0.00 in0.0 mm
10:15 AM 53.1°F11.7°C 38.7°F3.7°C 58% 16.0 mph WSW25.7 kmh WSW 18.0 mph29.0 kmh 29.63 in1003.4 mb 0.00 in0.0 mm 0.00 in/hr0.0 mm/hr 0.00 in0.0 mm
10:20 AM 53.5°F11.9°C 38.6°F3.7°C 57% 12.0 mph SW19.3 kmh SW 23.0 mph37.0 kmh 29.63 in1003.4 mb 0.00 in0.0 mm 0.00 in/hr0.0 mm/hr 0.00 in0.0 mm
10:25 AM 53.7°F12.1°C 38.8°F3.8°C 57% 14.0 mph SW22.5 kmh SW 21.0 mph33.8 kmh 29.63 in1003.4 mb 0.00 in0.0 mm 0.00 in/hr0.0 mm/hr 0.00 in0.0 mm
10:30 AM 54.2°F12.3°C 38.8°F3.8°C 56% 9.0 mph WSW14.5 kmh WSW 22.0 mph35.4 kmh 29.63 in1003.4 mb 0.00 in0.0 mm 0.00 in/hr0.0 mm/hr 0.00 in0.0 mm
10:35 AM 54.2°F12.3°C 38.8°F3.8°C 56% 13.0 mph W20.9 kmh W 20.0 mph32.2 kmh 29.63 in1003.4 mb 0.00 in0.0 mm 0.00 in/hr0.0 mm/hr 0.00 in0.0 mm
10:40 AM 54.1°F12.3°C 38.7°F3.7°C 56% 11.0 mph SW17.7 kmh SW 25.0 mph40.2 kmh 29.63 in1003.4 mb 0.00 in0.0 mm 0.00 in/hr0.0 mm/hr 0.00 in0.0 mm
10:45 AM 54.4°F12.4°C 39.4°F4.1°C 57% 8.0 mph WSW12.9 kmh WSW 20.0 mph32.2 kmh 29.63 in1003.4 mb 0.00 in0.0 mm 0.00 in/hr0.0 mm/hr 0.00 in0.0 mm
10:50 AM 54.8°F12.7°C 39.4°F4.1°C 56% 14.0 mph WSW22.5 kmh WSW 20.0 mph32.2 kmh 29.62 in1003.0 mb 0.00 in0.0 mm 0.00 in/hr0.0 mm/hr 0.00 in0.0 mm
10:55 AM 54.4°F12.4°C 38.5°F3.6°C 55% 14.0 mph W22.5 kmh W 26.0 mph41.8 kmh 29.62 in1003.0 mb 0.00 in0.0 mm 0.00 in/hr0.0 mm/hr 0.00 in0.0 mm
11:00 AM 54.5°F12.5°C 39.1°F3.9°C 56% 18.0 mph SW29.0 kmh SW 27.0 mph43.5 kmh 29.61 in1002.7 mb 0.00 in0.0 mm 0.00 in/hr0.0 mm/hr 0.00 in0.0 mm
11:05 AM 54.6°F12.6°C 38.7°F3.7°C 55% 12.0 mph SW19.3 kmh SW 20.0 mph32.2 kmh 29.61 in1002.7 mb 0.00 in0.0 mm 0.00 in/hr0.0 mm/hr 0.00 in0.0 mm
11:10 AM 55.3°F12.9°C 39.4°F4.1°C 55% 8.0 mph WSW12.9 kmh WSW 16.0 mph25.7 kmh 29.62 in1003.0 mb 0.00 in0.0 mm 0.00 in/hr0.0 mm/hr 0.00 in0.0 mm
11:15 AM 55.5°F13.1°C 39.5°F4.2°C 55% 8.0 mph SW12.9 kmh SW 18.0 mph29.0 kmh 29.62 in1003.0 mb 0.00 in0.0 mm 0.00 in/hr0.0 mm/hr 0.00 in0.0 mm
11:20 AM 55.3°F12.9°C 38.4°F3.6°C 53% 17.0 mph SW27.4 kmh SW 24.0 mph38.6 kmh 29.62 in1003.0 mb 0.00 in0.0 mm 0.00 in/hr0.0 mm/hr 0.00 in0.0 mm
11:25 AM 54.6°F12.6°C 39.2°F4.0°C 56% 14.0 mph SW22.5 kmh SW 19.0 mph30.6 kmh 29.62 in1003.0 mb 0.00 in0.0 mm 0.00 in/hr0.0 mm/hr 0.00 in0.0 mm
11:30 AM 54.7°F12.6°C 39.3°F4.1°C 56% 7.0 mph WSW11.3 kmh WSW 15.0 mph24.1 kmh 29.63 in1003.4 mb 0.00 in0.0 mm 0.00 in/hr0.0 mm/hr 0.00 in0.0 mm
11:35 AM 55.1°F12.8°C 38.2°F3.4°C 53% 24.0 mph W38.6 kmh W 26.0 mph41.8 kmh 29.62 in1003.0 mb 0.00 in0.0 mm 0.00 in/hr0.0 mm/hr 0.00 in0.0 mm
11:40 AM 55.1°F12.8°C 37.7°F3.2°C 52% 9.0 mph W14.5 kmh W 29.0 mph46.7 kmh 29.61 in1002.7 mb 0.00 in0.0 mm 0.00 in/hr0.0 mm/hr 0.00 in0.0 mm
11:45 AM 55.3°F12.9°C 38.4°F3.6°C 53% 14.0 mph W22.5 kmh W 21.0 mph33.8 kmh 29.62 in1003.0 mb 0.00 in0.0 mm 0.00 in/hr0.0 mm/hr 0.00 in0.0 mm
11:50 AM 55.0°F12.8°C 38.6°F3.7°C 54% 15.0 mph W24.1 kmh W 21.0 mph33.8 kmh 29.62 in1003.0 mb 0.00 in0.0 mm 0.00 in/hr0.0 mm/hr 0.00 in0.0 mm
11:55 AM 55.1°F12.8°C 38.2°F3.4°C 53% 22.0 mph WSW35.4 kmh WSW 24.0 mph38.6 kmh 29.62 in1003.0 mb 0.00 in0.0 mm 0.00 in/hr0.0 mm/hr 0.00 in0.0 mm
12:00 PM 54.3°F12.4°C 38.0°F3.3°C 54% 18.0 mph SW29.0 kmh SW 31.0 mph49.9 kmh 29.62 in1003.0 mb 0.00 in0.0 mm 0.00 in/hr0.0 mm/hr 0.00 in0.0 mm
12:05 PM 53.9°F12.2°C 38.1°F3.4°C 55% 18.0 mph SW29.0 kmh SW 29.0 mph46.7 kmh 29.62 in1003.0 mb 0.00 in0.0 mm 0.00 in/hr0.0 mm/hr 0.00 in0.0 mm
12:10 PM 54.2°F12.3°C 37.9°F3.3°C 54% 25.0 mph WSW40.2 kmh WSW 34.0 mph54.7 kmh 29.61 in1002.7 mb 0.00 in0.0 mm 0.00 in/hr0.0 mm/hr 0.00 in0.0 mm
12:15 PM 54.1°F12.3°C 38.7°F3.7°C 56% 24.0 mph WSW38.6 kmh WSW 37.0 mph59.5 kmh 29.61 in1002.7 mb 0.00 in0.0 mm 0.00 in/hr0.0 mm/hr 0.00 in0.0 mm
12:20 PM 54.2°F12.3°C 38.8°F3.8°C 56% 24.0 mph WSW38.6 kmh WSW 37.0 mph59.5 kmh 29.60 in1002.4 mb 0.00 in0.0 mm 0.00 in/hr0.0 mm/hr 0.00 in0.0 mm
12:25 PM 53.7°F12.1°C 38.3°F3.5°C 56% 11.0 mph SW17.7 kmh SW 31.0 mph49.9 kmh 29.61 in1002.7 mb 0.00 in0.0 mm 0.00 in/hr0.0 mm/hr 0.00 in0.0 mm
12:30 PM 54.1°F12.3°C 38.7°F3.7°C 56% 9.0 mph SW14.5 kmh SW 36.0 mph57.9 kmh 29.61 in1002.7 mb 0.00 in0.0 mm 0.00 in/hr0.0 mm/hr 0.00 in0.0 mm
12:35 PM 54.8°F12.7°C 38.4°F3.6°C 54% 14.0 mph W22.5 kmh W 25.0 mph40.2 kmh 29.60 in1002.4 mb 0.00 in0.0 mm 0.00 in/hr0.0 mm/hr 0.00 in0.0 mm
12:40 PM 55.1°F12.8°C 38.7°F3.7°C 54% 17.0 mph SW27.4 kmh SW 24.0 mph38.6 kmh 29.61 in1002.7 mb 0.00 in0.0 mm 0.00 in/hr0.0 mm/hr 0.00 in0.0 mm
12:45 PM 55.1°F12.8°C 38.2°F3.4°C 53% 17.0 mph SW27.4 kmh SW 26.0 mph41.8 kmh 29.60 in1002.4 mb 0.00 in0.0 mm 0.00 in/hr0.0 mm/hr 0.00 in0.0 mm
12:50 PM 55.0°F12.8°C 38.1°F3.4°C 53% 8.0 mph SW12.9 kmh SW 31.0 mph49.9 kmh 29.60 in1002.4 mb 0.00 in0.0 mm 0.00 in/hr0.0 mm/hr 0.00 in0.0 mm
12:55 PM 55.5°F13.1°C 38.6°F3.7°C 53% 17.0 mph SW27.4 kmh SW 25.0 mph40.2 kmh 29.60 in1002.4 mb 0.00 in0.0 mm 0.00 in/hr0.0 mm/hr 0.00 in0.0 mm
01:00 PM 55.8°F13.2°C 37.9°F3.3°C 51% 20.0 mph WSW32.2 kmh WSW 31.0 mph49.9 kmh 29.59 in1002.0 mb 0.00 in0.0 mm 0.00 in/hr0.0 mm/hr 0.00 in0.0 mm
01:05 PM 55.8°F13.2°C 37.4°F3.0°C 50% 22.0 mph WSW35.4 kmh WSW 30.0 mph48.3 kmh 29.59 in1002.0 mb 0.00 in0.0 mm 0.00 in/hr0.0 mm/hr 0.00 in0.0 mm
01:10 PM 56.3°F13.5°C 37.9°F3.3°C 50% 8.0 mph WSW12.9 kmh WSW 28.0 mph45.1 kmh 29.60 in1002.4 mb 0.00 in0.0 mm 0.00 in/hr0.0 mm/hr 0.00 in0.0 mm
01:15 PM 56.5°F13.6°C 37.0°F2.8°C 48% 17.0 mph W27.4 kmh W 27.0 mph43.5 kmh 29.60 in1002.4 mb 0.00 in0.0 mm 0.00 in/hr0.0 mm/hr 0.00 in0.0 mm
01:20 PM 57.0°F13.9°C 38.5°F3.6°C 50% 9.0 mph SW14.5 kmh SW 26.0 mph41.8 kmh 29.59 in1002.0 mb 0.00 in0.0 mm 0.00 in/hr0.0 mm/hr 0.00 in0.0 mm
01:25 PM 58.3°F14.6°C 36.4°F2.4°C 44% 18.0 mph SSW29.0 kmh SSW 30.0 mph48.3 kmh 29.60 in1002.4 mb 0.00 in0.0 mm 0.00 in/hr0.0 mm/hr 0.00 in0.0 mm
01:30 PM 58.4°F14.7°C 35.9°F2.2°C 43% 15.0 mph WSW24.1 kmh WSW 27.0 mph43.5 kmh 29.60 in1002.4 mb 0.00 in0.0 mm 0.00 in/hr0.0 mm/hr 0.00 in0.0 mm
01:35 PM 59.0°F15.0°C 36.5°F2.5°C 43% 19.0 mph WSW30.6 kmh WSW 26.0 mph41.8 kmh 29.60 in1002.4 mb 0.00 in0.0 mm 0.00 in/hr0.0 mm/hr 0.00 in0.0 mm
01:40 PM 59.1°F15.1°C 36.0°F2.2°C 42% 16.0 mph WSW25.7 kmh WSW 27.0 mph43.5 kmh 29.60 in1002.4 mb 0.00 in0.0 mm 0.00 in/hr0.0 mm/hr 0.00 in0.0 mm
01:45 PM 59.0°F15.0°C 37.1°F2.8°C 44% 7.0 mph WSW11.3 kmh WSW 26.0 mph41.8 kmh 29.59 in1002.0 mb 0.00 in0.0 mm 0.00 in/hr0.0 mm/hr 0.00 in0.0 mm
01:50 PM 59.5°F15.3°C 36.3°F2.4°C 42% 11.0 mph WSW17.7 kmh WSW 31.0 mph49.9 kmh 29.59 in1002.0 mb 0.00 in0.0 mm 0.00 in/hr0.0 mm/hr 0.00 in0.0 mm
01:55 PM 59.8°F15.4°C 36.0°F2.2°C 41% 7.0 mph SW11.3 kmh SW 26.0 mph41.8 kmh 29.60 in1002.4 mb 0.00 in0.0 mm 0.00 in/hr0.0 mm/hr 0.00 in0.0 mm
02:00 PM 60.3°F15.7°C 36.5°F2.5°C 41% 13.0 mph WSW20.9 kmh WSW 23.0 mph37.0 kmh 29.59 in1002.0 mb 0.00 in0.0 mm 0.00 in/hr0.0 mm/hr 0.00 in0.0 mm
02:05 PM 60.3°F15.7°C 36.5°F2.5°C 41% 20.0 mph WSW32.2 kmh WSW 29.0 mph46.7 kmh 29.59 in1002.0 mb 0.00 in0.0 mm 0.00 in/hr0.0 mm/hr 0.00 in0.0 mm
02:10 PM 60.2°F15.7°C 35.7°F2.1°C 40% 4.0 mph NW6.4 kmh NW 27.0 mph43.5 kmh 29.59 in1002.0 mb 0.00 in0.0 mm 0.00 in/hr0.0 mm/hr 0.00 in0.0 mm
02:15 PM 61.2°F16.2°C 36.0°F2.2°C 39% 16.0 mph SSW25.7 kmh SSW 30.0 mph48.3 kmh 29.59 in1002.0 mb 0.00 in0.0 mm 0.00 in/hr0.0 mm/hr 0.00 in0.0 mm
02:20 PM 61.3°F16.3°C 34.8°F1.6°C 37% 21.0 mph WSW33.8 kmh WSW 36.0 mph57.9 kmh 29.59 in1002.0 mb 0.00 in0.0 mm 0.00 in/hr0.0 mm/hr 0.00 in0.0 mm
02:25 PM 60.5°F15.8°C 35.4°F1.9°C 39% 19.0 mph WSW30.6 kmh WSW 39.0 mph62.8 kmh 29.59 in1002.0 mb 0.00 in0.0 mm 0.00 in/hr0.0 mm/hr 0.00 in0.0 mm
02:30 PM 60.7°F15.9°C 34.9°F1.6°C 38% 9.0 mph SW14.5 kmh SW 29.0 mph46.7 kmh 29.59 in1002.0 mb 0.00 in0.0 mm 0.00 in/hr0.0 mm/hr 0.00 in0.0 mm
02:35 PM 60.9°F16.1°C 35.1°F1.7°C 38% 12.0 mph SW19.3 kmh SW 23.0 mph37.0 kmh 29.60 in1002.4 mb 0.00 in0.0 mm 0.00 in/hr0.0 mm/hr 0.00 in0.0 mm
02:40 PM 61.1°F16.2°C 33.9°F1.1°C 36% 6.0 mph SSW9.7 kmh SSW 25.0 mph40.2 kmh 29.60 in1002.4 mb 0.00 in0.0 mm 0.00 in/hr0.0 mm/hr 0.00 in0.0 mm
02:45 PM 61.0°F16.1°C 35.8°F2.1°C 39% 15.0 mph SW24.1 kmh SW 20.0 mph32.2 kmh 29.60 in1002.4 mb 0.00 in0.0 mm 0.00 in/hr0.0 mm/hr 0.00 in0.0 mm
02:50 PM 59.8°F15.4°C 33.4°F0.8°C 37% 14.0 mph SW22.5 kmh SW 23.0 mph37.0 kmh 29.60 in1002.4 mb 0.00 in0.0 mm 0.00 in/hr0.0 mm/hr 0.00 in0.0 mm
02:55 PM 58.7°F14.8°C 34.4°F1.3°C 40% 11.0 mph WSW17.7 kmh WSW 22.0 mph35.4 kmh 29.61 in1002.7 mb 0.00 in0.0 mm 0.00 in/hr0.0 mm/hr 0.00 in0.0 mm
03:00 PM 54.8°F12.7°C 36.0°F2.2°C 49% 9.0 mph SSW14.5 kmh SSW 33.0 mph53.1 kmh 29.63 in1003.4 mb 0.00 in0.0 mm 0.00 in/hr0.0 mm/hr 0.00 in0.0 mm
03:05 PM 52.2°F11.2°C 38.7°F3.7°C 60% 11.0 mph WNW17.7 kmh WNW 24.0 mph38.6 kmh 29.63 in1003.4 mb 0.01 in0.3 mm 0.12 in/hr3.0 mm/hr 0.01 in0.3 mm
03:10 PM 51.1°F10.6°C 38.5°F3.6°C 62% 9.0 mph WSW14.5 kmh WSW 17.0 mph27.4 kmh 29.63 in1003.4 mb 0.02 in0.5 mm 0.12 in/hr3.0 mm/hr 0.02 in0.5 mm
03:15 PM 50.9°F10.5°C 39.5°F4.2°C 65% 13.0 mph WNW20.9 kmh WNW 25.0 mph40.2 kmh 29.63 in1003.4 mb 0.02 in0.5 mm 0.00 in/hr0.0 mm/hr 0.02 in0.5 mm
03:20 PM 50.5°F10.3°C 39.5°F4.2°C 66% 12.0 mph SSW19.3 kmh SSW 19.0 mph30.6 kmh 29.63 in1003.4 mb 0.03 in0.8 mm 0.12 in/hr3.0 mm/hr 0.03 in0.8 mm
03:25 PM 50.5°F10.3°C 39.5°F4.2°C 66% 19.0 mph SW30.6 kmh SW 27.0 mph43.5 kmh 29.63 in1003.4 mb 0.03 in0.8 mm 0.00 in/hr0.0 mm/hr 0.03 in0.8 mm
03:30 PM 50.7°F10.4°C 38.9°F3.8°C 64% 19.0 mph SW30.6 kmh SW 21.0 mph33.8 kmh 29.63 in1003.4 mb 0.03 in0.8 mm 0.00 in/hr0.0 mm/hr 0.03 in0.8 mm
03:35 PM 50.8°F10.4°C 39.0°F3.9°C 64% 4.0 mph W6.4 kmh W 13.0 mph20.9 kmh 29.62 in1003.0 mb 0.03 in0.8 mm 0.00 in/hr0.0 mm/hr 0.03 in0.8 mm
03:40 PM 50.9°F10.5°C 38.7°F3.7°C 63% 9.0 mph WSW14.5 kmh WSW 10.0 mph16.1 kmh 29.62 in1003.0 mb 0.03 in0.8 mm 0.00 in/hr0.0 mm/hr 0.03 in0.8 mm
03:45 PM 50.8°F10.4°C 39.8°F4.3°C 66% 7.0 mph WNW11.3 kmh WNW 10.0 mph16.1 kmh 29.63 in1003.4 mb 0.03 in0.8 mm 0.00 in/hr0.0 mm/hr 0.03 in0.8 mm
03:50 PM 51.0°F10.6°C 38.0°F3.3°C 61% 2.0 mph W3.2 kmh W 9.0 mph14.5 kmh 29.62 in1003.0 mb 0.03 in0.8 mm 0.00 in/hr0.0 mm/hr 0.03 in0.8 mm
03:55 PM 51.4°F10.8°C 37.9°F3.3°C 60% 3.0 mph WSW4.8 kmh WSW 13.0 mph20.9 kmh 29.63 in1003.4 mb 0.03 in0.8 mm 0.00 in/hr0.0 mm/hr 0.03 in0.8 mm
04:00 PM 51.4°F10.8°C 38.4°F3.6°C 61% 7.0 mph WSW11.3 kmh WSW 13.0 mph20.9 kmh 29.63 in1003.4 mb 0.03 in0.8 mm 0.00 in/hr0.0 mm/hr 0.03 in0.8 mm
04:05 PM 51.3°F10.7°C 38.7°F3.7°C 62% 3.0 mph WSW4.8 kmh WSW 8.0 mph12.9 kmh 29.62 in1003.0 mb 0.02 in0.5 mm 0.00 in/hr0.0 mm/hr 0.03 in0.8 mm
04:10 PM 51.9°F11.1°C 38.4°F3.6°C 60% 6.0 mph W9.7 kmh W 13.0 mph20.9 kmh 29.62 in1003.0 mb 0.01 in0.3 mm 0.00 in/hr0.0 mm/hr 0.03 in0.8 mm
04:15 PM 53.7°F12.1°C 38.3°F3.5°C 56% 9.0 mph W14.5 kmh W 24.0 mph38.6 kmh 29.62 in1003.0 mb 0.01 in0.3 mm 0.00 in/hr0.0 mm/hr 0.03 in0.8 mm
04:20 PM 54.9°F12.7°C 38.0°F3.3°C 53% 3.0 mph NW4.8 kmh NW 20.0 mph32.2 kmh 29.62 in1003.0 mb 0.00 in0.0 mm 0.00 in/hr0.0 mm/hr 0.03 in0.8 mm
04:25 PM 55.3°F12.9°C 37.9°F3.3°C 52% 1.0 mph WSW1.6 kmh WSW 13.0 mph20.9 kmh 29.62 in1003.0 mb 0.00 in0.0 mm 0.00 in/hr0.0 mm/hr 0.03 in0.8 mm
04:30 PM 55.3°F12.9°C 37.9°F3.3°C 52% 7.0 mph SW11.3 kmh SW 9.0 mph14.5 kmh 29.63 in1003.4 mb 0.00 in0.0 mm 0.00 in/hr0.0 mm/hr 0.03 in0.8 mm
04:35 PM 54.9°F12.7°C 35.5°F1.9°C 48% 40.0 mph SW64.4 kmh SW 40.0 mph64.4 kmh 29.63 in1003.4 mb 0.00 in0.0 mm 0.00 in/hr0.0 mm/hr 0.03 in0.8 mm
04:40 PM 54.2°F12.3°C 34.4°F1.3°C 47% 17.0 mph SSW27.4 kmh SSW 40.0 mph64.4 kmh 29.63 in1003.4 mb 0.00 in0.0 mm 0.00 in/hr0.0 mm/hr 0.03 in0.8 mm
04:45 PM 53.7°F12.1°C 36.0°F2.2°C 51% 19.0 mph W30.6 kmh W 34.0 mph54.7 kmh 29.63 in1003.4 mb 0.00 in0.0 mm 0.00 in/hr0.0 mm/hr 0.03 in0.8 mm
04:50 PM 54.2°F12.3°C 36.9°F2.7°C 52% 10.0 mph W16.1 kmh W 23.0 mph37.0 kmh 29.63 in1003.4 mb 0.00 in0.0 mm 0.00 in/hr0.0 mm/hr 0.03 in0.8 mm
04:55 PM 54.8°F12.7°C 36.5°F2.5°C 50% 10.0 mph SW16.1 kmh SW 20.0 mph32.2 kmh 29.63 in1003.4 mb 0.00 in0.0 mm 0.00 in/hr0.0 mm/hr 0.03 in0.8 mm
05:00 PM 54.9°F12.7°C 36.6°F2.6°C 50% 6.0 mph W9.7 kmh W 15.0 mph24.1 kmh 29.64 in1003.7 mb 0.00 in0.0 mm 0.00 in/hr0.0 mm/hr 0.03 in0.8 mm
05:05 PM 55.0°F12.8°C 36.7°F2.6°C 50% 8.0 mph WSW12.9 kmh WSW 13.0 mph20.9 kmh 29.64 in1003.7 mb 0.00 in0.0 mm 0.00 in/hr0.0 mm/hr 0.03 in0.8 mm
05:10 PM 55.1°F12.8°C 37.7°F3.2°C 52% 3.0 mph WNW4.8 kmh WNW 9.0 mph14.5 kmh 29.63 in1003.4 mb 0.00 in0.0 mm 0.00 in/hr0.0 mm/hr 0.03 in0.8 mm
05:15 PM 54.9°F12.7°C 38.0°F3.3°C 53% 3.0 mph SW4.8 kmh SW 7.0 mph11.3 kmh 29.64 in1003.7 mb 0.00 in0.0 mm 0.00 in/hr0.0 mm/hr 0.03 in0.8 mm
05:20 PM 54.8°F12.7°C 34.9°F1.6°C 47% 26.0 mph WSW41.8 kmh WSW 33.0 mph53.1 kmh 29.66 in1004.4 mb 0.00 in0.0 mm 0.00 in/hr0.0 mm/hr 0.03 in0.8 mm
05:25 PM 54.0°F12.2°C 35.7°F2.1°C 50% 9.0 mph SW14.5 kmh SW 33.0 mph53.1 kmh 29.65 in1004.1 mb 0.00 in0.0 mm 0.00 in/hr0.0 mm/hr 0.03 in0.8 mm
05:30 PM 53.9°F12.2°C 34.6°F1.4°C 48% 15.0 mph SW24.1 kmh SW 24.0 mph38.6 kmh 29.64 in1003.7 mb 0.00 in0.0 mm 0.00 in/hr0.0 mm/hr 0.03 in0.8 mm
05:35 PM 54.3°F12.4°C 35.5°F1.9°C 49% 18.0 mph W29.0 kmh W 23.0 mph37.0 kmh 29.64 in1003.7 mb 0.00 in0.0 mm 0.00 in/hr0.0 mm/hr 0.03 in0.8 mm
05:40 PM 54.6°F12.6°C 35.3°F1.8°C 48% 23.0 mph W37.0 kmh W 28.0 mph45.1 kmh 29.63 in1003.4 mb 0.00 in0.0 mm 0.00 in/hr0.0 mm/hr 0.03 in0.8 mm
05:45 PM 54.5°F12.5°C 33.5°F0.8°C 45% 15.0 mph SSW24.1 kmh SSW 29.0 mph46.7 kmh 29.62 in1003.0 mb 0.00 in0.0 mm 0.00 in/hr0.0 mm/hr 0.03 in0.8 mm
05:50 PM 54.5°F12.5°C 34.6°F1.4°C 47% 13.0 mph WSW20.9 kmh WSW 19.0 mph30.6 kmh 29.63 in1003.4 mb 0.00 in0.0 mm 0.00 in/hr0.0 mm/hr 0.03 in0.8 mm
05:55 PM 55.0°F12.8°C 34.0°F1.1°C 45% 8.0 mph WNW12.9 kmh WNW 34.0 mph54.7 kmh 29.64 in1003.7 mb 0.00 in0.0 mm 0.00 in/hr0.0 mm/hr 0.03 in0.8 mm